createdAt,value
2017-11-17T00:00:05.955Z,1037.12
2017-11-17T00:01:05.942Z,1037.09
2017-11-17T00:02:05.930Z,1037.09
2017-11-17T00:03:05.921Z,1037.08
2017-11-17T00:04:05.907Z,1037.04
2017-11-17T00:05:05.897Z,1037.01
2017-11-17T00:06:05.886Z,1037.01
2017-11-17T00:07:05.875Z,1036.99
2017-11-17T00:08:05.863Z,1036.97
2017-11-17T00:09:05.851Z,1037.04
2017-11-17T00:10:05.839Z,1037.07
2017-11-17T00:11:05.829Z,1037.05
2017-11-17T00:12:05.819Z,1037.08
2017-11-17T00:13:05.807Z,1037.1
2017-11-17T00:14:05.796Z,1037.09
2017-11-17T00:15:05.784Z,1037.08
2017-11-17T00:16:05.777Z,1037.05
2017-11-17T00:17:05.764Z,1037.06
2017-11-17T00:18:05.752Z,1037.05
2017-11-17T00:19:05.738Z,1037.01
2017-11-17T00:20:05.729Z,1037.01
2017-11-17T00:21:05.715Z,1037
2017-11-17T00:22:05.705Z,1036.99
2017-11-17T00:23:05.694Z,1036.98
2017-11-17T00:24:05.684Z,1036.99
2017-11-17T00:25:05.671Z,1036.96
2017-11-17T00:26:05.662Z,1036.94
2017-11-17T00:27:05.649Z,1036.92
2017-11-17T00:28:05.636Z,1036.87
2017-11-17T00:29:05.625Z,1036.88
2017-11-17T00:30:05.615Z,1036.92
2017-11-17T00:31:05.604Z,1036.95
2017-11-17T00:32:05.593Z,1036.98
2017-11-17T00:33:05.581Z,1037.03
2017-11-17T00:34:05.570Z,1037.04
2017-11-17T00:35:05.559Z,1037.1
2017-11-17T00:36:05.546Z,1037.19
2017-11-17T00:37:05.534Z,1037.11
2017-11-17T00:38:05.524Z,1037.1
2017-11-17T00:39:05.513Z,1037.11
2017-11-17T00:40:05.501Z,1037.08
2017-11-17T00:41:05.494Z,1037.09
2017-11-17T00:42:05.482Z,1037.09
2017-11-17T00:43:05.467Z,1037.06
2017-11-17T00:44:05.455Z,1036.97
2017-11-17T00:45:05.446Z,1036.9
2017-11-17T00:46:05.432Z,1036.92
2017-11-17T00:47:05.425Z,1036.94
2017-11-17T00:48:05.417Z,1036.98
2017-11-17T00:49:05.401Z,1036.97
2017-11-17T00:50:05.389Z,1037.04
2017-11-17T00:51:05.377Z,1037.05
2017-11-17T00:52:05.367Z,1037.05
2017-11-17T00:53:05.355Z,1037.08
2017-11-17T00:54:05.347Z,1037.06
2017-11-17T00:55:05.334Z,1037.04
2017-11-17T00:56:05.322Z,1037.06
2017-11-17T00:57:05.311Z,1037.07
2017-11-17T00:58:05.300Z,1037
2017-11-17T00:59:05.286Z,1037.02
2017-11-17T01:00:05.277Z,1037.02
2017-11-17T01:01:05.264Z,1037.01
2017-11-17T01:02:05.252Z,1037.03
2017-11-17T01:03:05.248Z,1037.03
2017-11-17T01:04:05.231Z,1037.02
2017-11-17T01:05:05.221Z,1037.02
2017-11-17T01:06:05.207Z,1036.99
2017-11-17T01:07:05.199Z,1036.93
2017-11-17T01:08:05.202Z,1036.89
2017-11-17T01:09:05.176Z,1036.83
2017-11-17T01:10:05.168Z,1036.78
2017-11-17T01:11:05.153Z,1036.79
2017-11-17T01:12:05.142Z,1036.77
2017-11-17T01:13:05.130Z,1036.76
2017-11-17T01:14:05.120Z,1036.76
2017-11-17T01:15:05.111Z,1036.69
2017-11-17T01:16:05.098Z,1036.65
2017-11-17T01:17:05.095Z,1036.72
2017-11-17T01:18:05.077Z,1036.68
2017-11-17T01:19:05.065Z,1036.72
2017-11-17T01:20:05.054Z,1036.72
2017-11-17T01:21:05.042Z,1036.72
2017-11-17T01:22:05.032Z,1036.73
2017-11-17T01:23:05.025Z,1036.71
2017-11-17T01:24:05.013Z,1036.75
2017-11-17T01:25:05.005Z,1036.7
2017-11-17T01:26:04.989Z,1036.75
2017-11-17T01:27:04.976Z,1036.75
2017-11-17T01:28:04.968Z,1036.72
2017-11-17T01:29:04.968Z,1036.68
2017-11-17T01:30:04.943Z,1036.69
2017-11-17T01:31:04.932Z,1036.68
2017-11-17T01:32:04.930Z,1036.64
2017-11-17T01:33:04.909Z,1036.66
2017-11-17T01:34:04.899Z,1036.66
2017-11-17T01:35:04.888Z,1036.67
2017-11-17T01:36:04.878Z,1036.72
2017-11-17T01:37:04.867Z,1036.74
2017-11-17T01:38:04.856Z,1036.75
2017-11-17T01:39:04.843Z,1036.68
2017-11-17T01:40:04.833Z,1036.67
2017-11-17T01:41:04.820Z,1036.64
2017-11-17T01:42:04.810Z,1036.64
2017-11-17T01:43:04.801Z,1036.61
2017-11-17T01:44:04.790Z,1036.65
2017-11-17T01:45:04.779Z,1036.65
2017-11-17T01:46:04.766Z,1036.68
2017-11-17T01:47:04.755Z,1036.63
2017-11-17T01:48:04.745Z,1036.65
2017-11-17T01:49:04.731Z,1036.65
2017-11-17T01:50:04.723Z,1036.62
2017-11-17T01:51:04.713Z,1036.67
2017-11-17T01:52:04.707Z,1036.66
2017-11-17T01:53:04.690Z,1036.63
2017-11-17T01:54:04.680Z,1036.59
2017-11-17T01:55:04.668Z,1036.62
2017-11-17T01:56:04.657Z,1036.64
2017-11-17T01:57:04.647Z,1036.64
2017-11-17T01:58:04.636Z,1036.72
2017-11-17T01:59:04.632Z,1036.7
2017-11-17T02:00:04.612Z,1036.74
2017-11-17T02:01:04.602Z,1036.72
2017-11-17T02:02:04.590Z,1036.78
2017-11-17T02:03:04.583Z,1036.77
2017-11-17T02:04:04.569Z,1036.77
2017-11-17T02:05:04.559Z,1036.79
2017-11-17T02:06:04.552Z,1036.79
2017-11-17T02:07:04.535Z,1036.71
2017-11-17T02:08:04.525Z,1036.73
2017-11-17T02:09:04.513Z,1036.7
2017-11-17T02:10:04.502Z,1036.71
2017-11-17T02:11:04.494Z,1036.76
2017-11-17T02:12:04.481Z,1036.76
2017-11-17T02:13:04.472Z,1036.76
2017-11-17T02:14:04.459Z,1036.72
2017-11-17T02:15:04.448Z,1036.74
2017-11-17T02:16:04.437Z,1036.74
2017-11-17T02:17:04.425Z,1036.75
2017-11-17T02:18:04.415Z,1036.79
2017-11-17T02:19:04.404Z,1036.83
2017-11-17T02:20:04.394Z,1036.89
2017-11-17T02:21:04.382Z,1036.99
2017-11-17T02:22:04.374Z,1036.96
2017-11-17T02:23:04.361Z,1036.99
2017-11-17T02:24:04.351Z,1037.01
2017-11-17T02:25:04.338Z,1037.07
2017-11-17T02:26:04.335Z,1037.11
2017-11-17T02:27:04.315Z,1037.07
2017-11-17T02:28:04.306Z,1037.14
2017-11-17T02:29:04.300Z,1037.14
2017-11-17T02:30:04.284Z,1037.21
2017-11-17T02:31:04.279Z,1037.17
2017-11-17T02:32:04.261Z,1037.16
2017-11-17T02:33:04.252Z,1037.15
2017-11-17T02:34:04.239Z,1037.17
2017-11-17T02:35:04.230Z,1037.12
2017-11-17T02:36:04.216Z,1037.11
2017-11-17T02:37:04.210Z,1037.11
2017-11-17T02:38:04.194Z,1037.1
2017-11-17T02:39:04.185Z,1037.12
2017-11-17T02:40:04.173Z,1037.08
2017-11-17T02:41:04.162Z,1037.06
2017-11-17T02:42:04.151Z,1037.06
2017-11-17T02:43:04.138Z,1037.05
2017-11-17T02:44:04.127Z,1037.1
2017-11-17T02:45:04.117Z,1037.09
2017-11-17T02:46:04.109Z,1037.06
2017-11-17T02:47:04.094Z,1037.08
2017-11-17T02:48:04.083Z,1037.05
2017-11-17T02:49:04.073Z,1037.05
2017-11-17T02:50:04.063Z,1037
2017-11-17T02:51:04.051Z,1037.04
2017-11-17T02:52:04.040Z,1037.04
2017-11-17T02:53:04.040Z,1037.03
2017-11-17T02:54:04.018Z,1036.95
2017-11-17T02:55:04.008Z,1036.95
2017-11-17T02:56:03.996Z,1037
2017-11-17T02:57:03.984Z,1036.99
2017-11-17T02:58:03.973Z,1036.95
2017-11-17T02:59:03.963Z,1036.94
2017-11-17T03:00:03.952Z,1036.94
2017-11-17T03:01:03.941Z,1036.91
2017-11-17T03:02:03.930Z,1036.92
2017-11-17T03:03:03.918Z,1036.92
2017-11-17T03:04:03.907Z,1036.93
2017-11-17T03:05:03.894Z,1036.93
2017-11-17T03:06:03.890Z,1036.99
2017-11-17T03:07:03.874Z,1036.95
2017-11-17T03:08:03.864Z,1036.91
2017-11-17T03:09:03.852Z,1036.88
2017-11-17T03:10:03.842Z,1036.87
2017-11-17T03:11:03.830Z,1036.83
2017-11-17T03:12:03.826Z,1036.81
2017-11-17T03:13:03.809Z,1036.79
2017-11-17T03:14:03.796Z,1036.85
2017-11-17T03:15:03.785Z,1036.89
2017-11-17T03:16:03.774Z,1036.87
2017-11-17T03:17:03.766Z,1036.88
2017-11-17T03:18:03.751Z,1036.81
2017-11-17T03:19:03.742Z,1036.81
2017-11-17T03:20:03.731Z,1036.87
2017-11-17T03:21:03.720Z,1036.83
2017-11-17T03:22:03.708Z,1036.84
2017-11-17T03:23:03.698Z,1036.81
2017-11-17T03:24:03.685Z,1036.81
2017-11-17T03:25:03.676Z,1036.78
2017-11-17T03:26:03.664Z,1036.78
2017-11-17T03:27:03.654Z,1036.74
2017-11-17T03:28:03.643Z,1036.76
2017-11-17T03:29:03.632Z,1036.83
2017-11-17T03:30:03.625Z,1036.8
2017-11-17T03:31:03.613Z,1036.79
2017-11-17T03:32:03.616Z,1036.78
2017-11-17T03:33:03.586Z,1036.76
2017-11-17T03:34:03.578Z,1036.81
2017-11-17T03:35:03.566Z,1036.81
2017-11-17T03:36:03.555Z,1036.82
2017-11-17T03:37:03.544Z,1036.78
2017-11-17T03:38:03.532Z,1036.78
2017-11-17T03:39:03.521Z,1036.74
2017-11-17T03:40:03.513Z,1036.72
2017-11-17T03:41:03.500Z,1036.75
2017-11-17T03:42:03.489Z,1036.74
2017-11-17T03:43:03.477Z,1036.75
2017-11-17T03:44:03.472Z,1036.78
2017-11-17T03:45:03.454Z,1036.75
2017-11-17T03:46:03.444Z,1036.72
2017-11-17T03:47:03.434Z,1036.76
2017-11-17T03:48:03.424Z,1036.7
2017-11-17T03:49:03.416Z,1036.72
2017-11-17T03:50:03.405Z,1036.69
2017-11-17T03:51:03.388Z,1036.68
2017-11-17T03:52:03.379Z,1036.64
2017-11-17T03:53:03.368Z,1036.6
2017-11-17T03:54:03.357Z,1036.65
2017-11-17T03:55:03.357Z,1036.65
2017-11-17T03:56:03.337Z,1036.61
2017-11-17T03:57:03.327Z,1036.65
2017-11-17T03:58:03.314Z,1036.63
2017-11-17T03:59:03.302Z,1036.65
2017-11-17T04:00:03.294Z,1036.66
2017-11-17T04:01:03.279Z,1036.63
2017-11-17T04:02:03.271Z,1036.62
2017-11-17T04:03:03.259Z,1036.62
2017-11-17T04:04:03.248Z,1036.61
2017-11-17T04:05:03.236Z,1036.65
2017-11-17T04:06:03.226Z,1036.66
2017-11-17T04:07:03.225Z,1036.66
2017-11-17T04:08:03.205Z,1036.65
2017-11-17T04:09:03.195Z,1036.64
2017-11-17T04:10:03.183Z,1036.64
2017-11-17T04:11:03.171Z,1036.64
2017-11-17T04:12:03.161Z,1036.63
2017-11-17T04:13:03.149Z,1036.64
2017-11-17T04:14:03.141Z,1036.7
2017-11-17T04:15:03.129Z,1036.73
2017-11-17T04:16:03.119Z,1036.73
2017-11-17T04:17:03.109Z,1036.74
2017-11-17T04:18:03.098Z,1036.72
2017-11-17T04:19:03.085Z,1036.69
2017-11-17T04:20:03.076Z,1036.68
2017-11-17T04:21:03.064Z,1036.67
2017-11-17T04:22:03.052Z,1036.68
2017-11-17T04:23:03.042Z,1036.69
2017-11-17T04:24:03.033Z,1036.68
2017-11-17T04:25:03.023Z,1036.67
2017-11-17T04:26:03.010Z,1036.72
2017-11-17T04:27:02.999Z,1036.71
2017-11-17T04:28:02.990Z,1036.78
2017-11-17T04:29:02.980Z,1036.82
2017-11-17T04:30:02.970Z,1036.86
2017-11-17T04:31:02.958Z,1036.87
2017-11-17T04:32:02.946Z,1036.87
2017-11-17T04:33:02.938Z,1036.82
2017-11-17T04:34:02.925Z,1036.8
2017-11-17T04:35:02.916Z,1036.76
2017-11-17T04:36:02.905Z,1036.75
2017-11-17T04:37:02.894Z,1036.73
2017-11-17T04:38:02.883Z,1036.77
2017-11-17T04:39:02.873Z,1036.79
2017-11-17T04:40:02.860Z,1036.77
2017-11-17T04:41:02.850Z,1036.76
2017-11-17T04:42:02.840Z,1036.75
2017-11-17T04:43:02.831Z,1036.75
2017-11-17T04:44:02.819Z,1036.71
2017-11-17T04:45:02.808Z,1036.75
2017-11-17T04:46:02.799Z,1036.76
2017-11-17T04:47:02.786Z,1036.84
2017-11-17T04:48:02.775Z,1036.87
2017-11-17T04:49:02.763Z,1036.94
2017-11-17T04:50:02.757Z,1037
2017-11-17T04:51:02.743Z,1036.99
2017-11-17T04:52:02.733Z,1036.96
2017-11-17T04:53:02.723Z,1036.88
2017-11-17T04:54:02.713Z,1036.93
2017-11-17T04:55:02.705Z,1036.94
2017-11-17T04:56:02.691Z,1037
2017-11-17T04:57:02.681Z,1036.99
2017-11-17T04:58:02.673Z,1036.99
2017-11-17T04:59:02.657Z,1037
2017-11-17T05:00:02.648Z,1037
2017-11-17T05:01:02.637Z,1036.96
2017-11-17T05:02:02.625Z,1036.89
2017-11-17T05:03:02.616Z,1036.86
2017-11-17T05:04:02.606Z,1036.85
2017-11-17T05:05:02.596Z,1036.86
2017-11-17T05:06:02.583Z,1036.94
2017-11-17T05:07:02.573Z,1036.96
2017-11-17T05:08:02.562Z,1036.96
2017-11-17T05:09:02.551Z,1036.95
2017-11-17T05:10:02.541Z,1036.99
2017-11-17T05:11:02.531Z,1036.94
2017-11-17T05:12:02.524Z,1036.93
2017-11-17T05:13:02.509Z,1036.96
2017-11-17T05:14:02.498Z,1036.98
2017-11-17T05:15:02.488Z,1036.98
2017-11-17T05:16:02.477Z,1036.96
2017-11-17T05:17:02.466Z,1036.99
2017-11-17T05:18:02.461Z,1036.97
2017-11-17T05:19:02.449Z,1036.93
2017-11-17T05:20:02.437Z,1036.99
2017-11-17T05:21:02.424Z,1036.98
2017-11-17T05:22:02.412Z,1037.03
2017-11-17T05:23:02.404Z,1037.08
2017-11-17T05:24:02.394Z,1037.05
2017-11-17T05:25:02.382Z,1037.03
2017-11-17T05:26:02.372Z,1036.94
2017-11-17T05:27:02.368Z,1036.94
2017-11-17T05:28:02.350Z,1036.93
2017-11-17T05:29:02.339Z,1036.89
2017-11-17T05:30:02.329Z,1036.9
2017-11-17T05:31:02.319Z,1036.91
2017-11-17T05:32:02.322Z,1036.92
2017-11-17T05:33:02.297Z,1036.96
2017-11-17T05:34:02.290Z,1036.94
2017-11-17T05:35:02.276Z,1036.99
2017-11-17T05:36:02.266Z,1036.98
2017-11-17T05:37:02.255Z,1036.99
2017-11-17T05:38:02.244Z,1036.96
2017-11-17T05:39:02.234Z,1036.97
2017-11-17T05:40:02.225Z,1036.94
2017-11-17T05:41:02.214Z,1036.98
2017-11-17T05:42:02.234Z,1036.93
2017-11-17T05:43:02.191Z,1036.94
2017-11-17T05:44:02.181Z,1036.96
2017-11-17T05:45:02.171Z,1036.93
2017-11-17T05:46:02.161Z,1036.95
2017-11-17T05:47:02.149Z,1036.94
2017-11-17T05:48:02.139Z,1036.95
2017-11-17T05:49:02.130Z,1036.95
2017-11-17T05:50:02.117Z,1036.94
2017-11-17T05:51:02.109Z,1036.97
2017-11-17T05:52:02.099Z,1036.94
2017-11-17T05:53:02.107Z,1036.94
2017-11-17T05:54:02.077Z,1036.95
2017-11-17T05:55:02.067Z,1036.96
2017-11-17T05:56:02.073Z,1036.9
2017-11-17T05:57:02.045Z,1036.86
2017-11-17T05:58:02.035Z,1036.88
2017-11-17T05:59:02.028Z,1036.93
2017-11-17T06:00:02.016Z,1036.91
2017-11-17T06:01:02.005Z,1036.92
2017-11-17T06:02:01.995Z,1036.93
2017-11-17T06:03:01.985Z,1036.96
2017-11-17T06:04:01.974Z,1036.93
2017-11-17T06:05:01.965Z,1036.95
2017-11-17T06:06:01.954Z,1036.99
2017-11-17T06:07:01.946Z,1037.06
2017-11-17T06:08:01.934Z,1037.09
2017-11-17T06:09:01.925Z,1037.16
2017-11-17T06:10:01.914Z,1037.21
2017-11-17T06:11:01.903Z,1037.26
2017-11-17T06:12:01.895Z,1037.34
2017-11-17T06:13:01.891Z,1037.36
2017-11-17T06:14:01.873Z,1037.35
2017-11-17T06:15:01.874Z,1037.35
2017-11-17T06:16:01.851Z,1037.36
2017-11-17T06:17:01.841Z,1037.33
2017-11-17T06:18:01.830Z,1037.29
2017-11-17T06:19:01.823Z,1037.3
2017-11-17T06:20:01.810Z,1037.28
2017-11-17T06:21:01.800Z,1037.26
2017-11-17T06:22:01.790Z,1037.3
2017-11-17T06:23:01.776Z,1037.34
2017-11-17T06:24:01.767Z,1037.35
2017-11-17T06:25:01.758Z,1037.38
2017-11-17T06:26:01.747Z,1037.39
2017-11-17T06:27:01.737Z,1037.37
2017-11-17T06:28:01.732Z,1037.38
2017-11-17T06:29:01.734Z,1037.36
2017-11-17T06:30:01.706Z,1037.34
2017-11-17T06:31:01.693Z,1037.4
2017-11-17T06:32:01.684Z,1037.34
2017-11-17T06:33:01.675Z,1037.36
2017-11-17T06:34:01.663Z,1037.33
2017-11-17T06:35:01.654Z,1037.37
2017-11-17T06:36:01.643Z,1037.35
2017-11-17T06:37:01.631Z,1037.34
2017-11-17T06:38:01.622Z,1037.35
2017-11-17T06:39:01.612Z,1037.35
2017-11-17T06:40:01.602Z,1037.34
2017-11-17T06:41:01.590Z,1037.39
2017-11-17T06:42:01.581Z,1037.4
2017-11-17T06:43:01.569Z,1037.42
2017-11-17T06:44:01.559Z,1037.49
2017-11-17T06:45:01.549Z,1037.51
2017-11-17T06:46:01.538Z,1037.54
2017-11-17T06:47:01.533Z,1037.6
2017-11-17T06:48:01.518Z,1037.59
2017-11-17T06:49:01.508Z,1037.61
2017-11-17T06:50:01.499Z,1037.56
2017-11-17T06:51:01.487Z,1037.55
2017-11-17T06:52:01.482Z,1037.57
2017-11-17T06:53:01.466Z,1037.51
2017-11-17T06:54:01.460Z,1037.52
2017-11-17T06:55:01.449Z,1037.52
2017-11-17T06:56:01.447Z,1037.52
2017-11-17T06:57:01.428Z,1037.59
2017-11-17T06:58:01.423Z,1037.61
2017-11-17T06:59:01.402Z,1037.61
2017-11-17T07:00:01.393Z,1037.63
2017-11-17T07:01:01.387Z,1037.63
2017-11-17T07:02:01.373Z,1037.68
2017-11-17T07:03:01.363Z,1037.63
2017-11-17T07:04:01.352Z,1037.62
2017-11-17T07:05:01.345Z,1037.61
2017-11-17T07:06:01.332Z,1037.65
2017-11-17T07:07:01.331Z,1037.63
2017-11-17T07:08:01.312Z,1037.64
2017-11-17T07:09:01.302Z,1037.72
2017-11-17T07:10:01.291Z,1037.73
2017-11-17T07:11:01.281Z,1037.78
2017-11-17T07:12:01.270Z,1037.7
2017-11-17T07:13:01.268Z,1037.71
2017-11-17T07:14:01.251Z,1037.65
2017-11-17T07:15:01.241Z,1037.64
2017-11-17T07:16:01.232Z,1037.58
2017-11-17T07:17:01.221Z,1037.55
2017-11-17T07:18:01.214Z,1037.58
2017-11-17T07:19:01.203Z,1037.54
2017-11-17T07:20:01.201Z,1037.5
2017-11-17T07:21:01.196Z,1037.52
2017-11-17T07:22:01.172Z,1037.54
2017-11-17T07:23:01.160Z,1037.54
2017-11-17T07:24:01.157Z,1037.55
2017-11-17T07:25:01.141Z,1037.62
2017-11-17T07:26:01.131Z,1037.66
2017-11-17T07:27:01.121Z,1037.67
2017-11-17T07:28:01.111Z,1037.69
2017-11-17T07:29:01.101Z,1037.76
2017-11-17T07:30:01.089Z,1037.85
2017-11-17T07:31:01.082Z,1037.83
2017-11-17T07:32:01.071Z,1037.94
2017-11-17T07:33:01.062Z,1037.98
2017-11-17T07:34:01.051Z,1038.1
2017-11-17T07:35:01.041Z,1038.15
2017-11-17T07:36:01.047Z,1038.19
2017-11-17T07:37:01.023Z,1038.18
2017-11-17T07:38:01.012Z,1038.24
2017-11-17T07:39:01.014Z,1038.25
2017-11-17T07:40:00.995Z,1038.25
2017-11-17T07:41:00.984Z,1038.28
2017-11-17T07:42:00.973Z,1038.29
2017-11-17T07:43:00.961Z,1038.34
2017-11-17T07:44:00.952Z,1038.32
2017-11-17T07:45:00.942Z,1038.39
2017-11-17T07:46:00.932Z,1038.39
2017-11-17T07:47:00.922Z,1038.41
2017-11-17T07:48:00.917Z,1038.43
2017-11-17T07:49:00.915Z,1038.43
2017-11-17T07:50:00.893Z,1038.45
2017-11-17T07:51:00.881Z,1038.48
2017-11-17T07:52:00.872Z,1038.51
2017-11-17T07:53:00.887Z,1038.52
2017-11-17T07:54:00.854Z,1038.52
2017-11-17T07:55:00.841Z,1038.53
2017-11-17T07:56:00.831Z,1038.55
2017-11-17T07:57:00.829Z,1038.57
2017-11-17T07:58:00.810Z,1038.59
2017-11-17T07:59:00.814Z,1038.62
2017-11-17T08:00:00.793Z,1038.66
2017-11-17T08:01:00.779Z,1038.69
2017-11-17T08:02:00.769Z,1038.72
2017-11-17T08:03:00.760Z,1038.76
2017-11-17T08:04:00.749Z,1038.75
2017-11-17T08:05:00.741Z,1038.8
2017-11-17T08:06:00.727Z,1038.8
2017-11-17T08:07:00.718Z,1038.78
2017-11-17T08:08:00.712Z,1038.78
2017-11-17T08:09:00.717Z,1038.77
2017-11-17T08:10:00.689Z,1038.77
2017-11-17T08:11:00.675Z,1038.8
2017-11-17T08:12:00.664Z,1038.8
2017-11-17T08:13:00.656Z,1038.82
2017-11-17T08:14:00.644Z,1038.8
2017-11-17T08:15:00.637Z,1038.85
2017-11-17T08:16:00.640Z,1038.86
2017-11-17T08:17:00.619Z,1038.91
2017-11-17T08:18:00.607Z,1038.93
2017-11-17T08:19:00.593Z,1038.94
2017-11-17T08:20:00.584Z,1038.94
2017-11-17T08:21:00.572Z,1038.94
2017-11-17T08:22:00.562Z,1038.95
2017-11-17T08:23:00.553Z,1039
2017-11-17T08:24:00.540Z,1039.01
2017-11-17T08:25:00.531Z,1039
2017-11-17T08:26:00.523Z,1039.02
2017-11-17T08:27:00.510Z,1039.03
2017-11-17T08:28:00.501Z,1039.06
2017-11-17T08:29:00.489Z,1039.06
2017-11-17T08:30:00.479Z,1039.06
2017-11-17T08:31:00.467Z,1039.02
2017-11-17T08:32:00.458Z,1039.05
2017-11-17T08:33:00.446Z,1039.08
2017-11-17T08:34:00.435Z,1039.1
2017-11-17T08:35:00.426Z,1039.11
2017-11-17T08:36:00.426Z,1039.14
2017-11-17T08:37:00.406Z,1039.1
2017-11-17T08:38:00.394Z,1039.13
2017-11-17T08:39:00.383Z,1039.14
2017-11-17T08:40:00.374Z,1039.13
2017-11-17T08:41:00.369Z,1039.14
2017-11-17T08:42:00.362Z,1039.17
2017-11-17T08:43:00.344Z,1039.15
2017-11-17T08:44:00.334Z,1039.15
2017-11-17T08:45:00.322Z,1039.2
2017-11-17T08:46:00.314Z,1039.12
2017-11-17T08:47:00.320Z,1039.16
2017-11-17T08:48:00.305Z,1039.14
2017-11-17T08:49:00.312Z,1039.16
2017-11-17T08:50:00.279Z,1039.15
2017-11-17T08:51:00.276Z,1039.17
2017-11-17T08:52:00.249Z,1039.16
2017-11-17T08:53:00.264Z,1039.17
2017-11-17T08:54:00.243Z,1039.17
2017-11-17T08:55:00.221Z,1039.17
2017-11-17T08:56:00.225Z,1039.17
2017-11-17T08:57:00.230Z,1039.14
2017-11-17T08:58:00.200Z,1039.14
2017-11-17T08:59:00.178Z,1039.15
2017-11-17T09:00:00.178Z,1039.17
2017-11-17T09:01:00.181Z,1039.15
2017-11-17T09:02:00.163Z,1039.08
2017-11-17T09:03:00.157Z,1039.14
2017-11-17T09:04:00.154Z,1039.1
2017-11-17T09:05:00.134Z,1039.1
2017-11-17T09:06:00.118Z,1039.13
2017-11-17T09:07:00.094Z,1039.13
2017-11-17T09:08:00.086Z,1039.11
2017-11-17T09:09:00.076Z,1039.15
2017-11-17T09:10:00.066Z,1039.17
2017-11-17T09:11:00.053Z,1039.25
2017-11-17T09:12:00.044Z,1039.2
2017-11-17T09:13:00.036Z,1039.16
2017-11-17T09:14:00.034Z,1039.16
2017-11-17T09:15:00.016Z,1039.16
2017-11-17T09:16:00.015Z,1039.21
2017-11-17T09:16:59.995Z,1039.16
2017-11-17T09:17:59.990Z,1039.16
2017-11-17T09:18:59.973Z,1039.16
2017-11-17T09:19:59.972Z,1039.18
2017-11-17T09:20:59.983Z,1039.19
2017-11-17T09:21:59.941Z,1039.22
2017-11-17T09:22:59.980Z,1039.2
2017-11-17T09:23:59.924Z,1039.23
2017-11-17T09:24:59.915Z,1039.24
2017-11-17T09:25:59.924Z,1039.2
2017-11-17T09:26:59.914Z,1039.23
2017-11-17T09:27:59.883Z,1039.21
2017-11-17T09:28:59.897Z,1039.28
2017-11-17T09:29:59.888Z,1039.26
2017-11-17T09:30:59.862Z,1039.24
2017-11-17T09:31:59.873Z,1039.23
2017-11-17T09:32:59.833Z,1039.24
2017-11-17T09:33:59.830Z,1039.16
2017-11-17T09:34:59.827Z,1039.14
2017-11-17T09:35:59.801Z,1039.14
2017-11-17T09:36:59.793Z,1039.19
2017-11-17T09:37:59.793Z,1039.2
2017-11-17T09:38:59.772Z,1039.19
2017-11-17T09:39:59.763Z,1039.22
2017-11-17T09:40:59.752Z,1039.18
2017-11-17T09:41:59.742Z,1039.17
2017-11-17T09:42:59.747Z,1039.2
2017-11-17T09:43:59.756Z,1039.2
2017-11-17T09:44:59.727Z,1039.16
2017-11-17T09:45:59.721Z,1039.2
2017-11-17T09:46:59.692Z,1039.13
2017-11-17T09:47:59.682Z,1039.15
2017-11-17T09:48:59.686Z,1039.21
2017-11-17T09:49:59.675Z,1039.15
2017-11-17T09:50:59.888Z,1039.19
2017-11-17T09:51:59.661Z,1039.1
2017-11-17T09:52:59.653Z,1039.15
2017-11-17T09:53:59.625Z,1039.15
2017-11-17T09:54:59.630Z,1039.14
2017-11-17T09:55:59.605Z,1039.17
2017-11-17T09:56:59.596Z,1039.14
2017-11-17T09:57:59.594Z,1039.1
2017-11-17T09:58:59.575Z,1039.07
2017-11-17T09:59:59.566Z,1039.12
2017-11-17T10:00:59.556Z,1039.06
2017-11-17T10:01:59.545Z,1039.08
2017-11-17T10:02:59.537Z,1039.01
2017-11-17T10:03:59.528Z,1039.05
2017-11-17T10:04:59.525Z,1039.05
2017-11-17T10:05:59.509Z,1039.13
2017-11-17T10:06:59.497Z,1039.05
2017-11-17T10:07:59.487Z,1039.06
2017-11-17T10:08:59.479Z,1039.03
2017-11-17T10:09:59.471Z,1038.86
2017-11-17T10:10:59.459Z,1038.77
2017-11-17T10:11:59.452Z,1038.72
2017-11-17T10:12:59.440Z,1038.77
2017-11-17T10:13:59.431Z,1038.65
2017-11-17T10:14:59.420Z,1038.53
2017-11-17T10:15:59.410Z,1038.46
2017-11-17T10:16:59.400Z,1038.54
2017-11-17T10:17:59.389Z,1038.56
2017-11-17T10:18:59.382Z,1038.63
2017-11-17T10:19:59.373Z,1038.69
2017-11-17T10:20:59.363Z,1038.68
2017-11-17T10:21:59.356Z,1038.67
2017-11-17T10:22:59.344Z,1038.67
2017-11-17T10:23:59.335Z,1038.74
2017-11-17T10:24:59.328Z,1038.71
2017-11-17T10:25:59.322Z,1038.73
2017-11-17T10:26:59.325Z,1038.74
2017-11-17T10:27:59.318Z,1038.68
2017-11-17T10:28:59.294Z,1038.64
2017-11-17T10:29:59.499Z,1038.58
2017-11-17T10:30:59.276Z,1038.49
2017-11-17T10:31:59.279Z,1038.47
2017-11-17T10:32:59.256Z,1038.48
2017-11-17T10:33:59.244Z,1038.54
2017-11-17T10:34:59.232Z,1038.54
2017-11-17T10:35:59.224Z,1038.55
2017-11-17T10:36:59.214Z,1038.62
2017-11-17T10:37:59.209Z,1038.64
2017-11-17T10:38:59.199Z,1038.59
2017-11-17T10:39:59.188Z,1038.56
2017-11-17T10:40:59.193Z,1038.48
2017-11-17T10:41:59.176Z,1038.46
2017-11-17T10:42:59.176Z,1038.34
2017-11-17T10:43:59.161Z,1038.25
2017-11-17T10:44:59.150Z,1038.3
2017-11-17T10:45:59.140Z,1038.19
2017-11-17T10:46:59.124Z,1038.32
2017-11-17T10:47:59.160Z,1038.31
2017-11-17T10:48:59.108Z,1038.32
2017-11-17T10:49:59.131Z,1038.29
2017-11-17T10:50:59.097Z,1038.31
2017-11-17T10:51:59.084Z,1038.39
2017-11-17T10:52:59.082Z,1038.39
2017-11-17T10:53:59.064Z,1038.39
2017-11-17T10:54:59.053Z,1038.43
2017-11-17T10:55:59.045Z,1038.41
2017-11-17T10:56:59.036Z,1038.39
2017-11-17T10:57:59.028Z,1038.42
2017-11-17T10:58:59.020Z,1038.4
2017-11-17T10:59:59.020Z,1038.41
2017-11-17T11:00:59.017Z,1038.46
2017-11-17T11:01:59.009Z,1038.52
2017-11-17T11:02:59.013Z,1038.48
2017-11-17T11:03:58.973Z,1038.55
2017-11-17T11:04:58.967Z,1038.6
2017-11-17T11:05:58.956Z,1038.76
2017-11-17T11:06:58.952Z,1038.81
2017-11-17T11:07:58.943Z,1038.78
2017-11-17T11:08:58.934Z,1038.77
2017-11-17T11:09:58.937Z,1038.74
2017-11-17T11:10:58.910Z,1038.76
2017-11-17T11:11:58.905Z,1038.75
2017-11-17T11:12:58.894Z,1038.76
2017-11-17T11:13:58.897Z,1038.8
2017-11-17T11:14:58.876Z,1038.8
2017-11-17T11:15:58.869Z,1038.8
2017-11-17T11:16:58.862Z,1038.81
2017-11-17T11:17:58.863Z,1038.81
2017-11-17T11:18:58.841Z,1038.86
2017-11-17T11:19:58.837Z,1038.85
2017-11-17T11:20:58.824Z,1038.89
2017-11-17T11:21:58.817Z,1038.85
2017-11-17T11:22:58.814Z,1038.92
2017-11-17T11:23:58.805Z,1038.91
2017-11-17T11:24:58.790Z,1038.93
2017-11-17T11:25:58.774Z,1039.01
2017-11-17T11:26:58.769Z,1039.03
2017-11-17T11:27:58.778Z,1039.04
2017-11-17T11:28:58.761Z,1039.07
2017-11-17T11:29:58.740Z,1039.1
2017-11-17T11:30:58.729Z,1039.1
2017-11-17T11:31:58.720Z,1039.15
2017-11-17T11:32:58.713Z,1039.17
2017-11-17T11:33:58.702Z,1039.16
2017-11-17T11:34:58.694Z,1039.19
2017-11-17T11:35:58.686Z,1039.2
2017-11-17T11:36:58.685Z,1039.26
2017-11-17T11:37:58.665Z,1039.31
2017-11-17T11:38:58.655Z,1039.29
2017-11-17T11:39:58.658Z,1039.33
2017-11-17T11:40:58.635Z,1039.34
2017-11-17T11:41:58.637Z,1039.31
2017-11-17T11:42:58.636Z,1039.3
2017-11-17T11:43:58.623Z,1039.34
2017-11-17T11:44:58.616Z,1039.38
2017-11-17T11:45:58.607Z,1039.39
2017-11-17T11:46:58.597Z,1039.36
2017-11-17T11:47:58.585Z,1039.37
2017-11-17T11:48:58.778Z,1039.36
2017-11-17T11:49:58.563Z,1039.36
2017-11-17T11:50:58.555Z,1039.36
2017-11-17T11:51:58.553Z,1039.35
2017-11-17T11:52:58.541Z,1039.38
2017-11-17T11:53:58.515Z,1039.32
2017-11-17T11:54:58.520Z,1039.34
2017-11-17T11:55:58.508Z,1039.35
2017-11-17T11:56:58.490Z,1039.33
2017-11-17T11:57:58.484Z,1039.33
2017-11-17T11:58:58.466Z,1039.35
2017-11-17T11:59:58.460Z,1039.36
2017-11-17T12:00:58.454Z,1039.31
2017-11-17T12:01:58.464Z,1039.37
2017-11-17T12:02:58.435Z,1039.35
2017-11-17T12:03:58.428Z,1039.38
2017-11-17T12:04:58.412Z,1039.37
2017-11-17T12:05:58.410Z,1039.34
2017-11-17T12:06:58.394Z,1039.38
2017-11-17T12:07:58.385Z,1039.37